sensor_id;sensor_type;location;lat;lon;timestamp;pressure;altitude;pressure_sealevel;temperature;humidity
39267;BME280;24967;51.154;13.812;2022-07-06T00:00:57;100051.31;;;18.75;76.07
39267;BME280;24967;51.154;13.812;2022-07-06T00:03:24;100043.56;;;18.87;75.80
39267;BME280;24967;51.154;13.812;2022-07-06T00:05:50;100049.59;;;18.89;75.64
39267;BME280;24967;51.154;13.812;2022-07-06T00:08:17;100036.84;;;18.76;75.72
39267;BME280;24967;51.154;13.812;2022-07-06T00:10:43;100025.69;;;18.79;75.90
39267;BME280;24967;51.154;13.812;2022-07-06T00:13:11;100023.84;;;18.65;75.70
39267;BME280;24967;51.154;13.812;2022-07-06T00:15:38;100029.78;;;18.75;75.89
39267;BME280;24967;51.154;13.812;2022-07-06T00:18:04;100028.56;;;18.77;75.67
39267;BME280;24967;51.154;13.812;2022-07-06T00:20:31;100016.63;;;18.87;75.51
39267;BME280;24967;51.154;13.812;2022-07-06T00:22:57;100018.50;;;18.86;75.20
39267;BME280;24967;51.154;13.812;2022-07-06T00:25:24;100014.06;;;18.64;74.95
39267;BME280;24967;51.154;13.812;2022-07-06T00:27:50;100000.94;;;18.54;75.50
39267;BME280;24967;51.154;13.812;2022-07-06T00:30:18;100004.56;;;18.61;75.82
39267;BME280;24967;51.154;13.812;2022-07-06T00:32:45;99999.53;;;18.73;76.23
39267;BME280;24967;51.154;13.812;2022-07-06T00:35:11;99998.63;;;18.72;76.17
39267;BME280;24967;51.154;13.812;2022-07-06T00:37:37;100006.47;;;18.46;77.86
39267;BME280;24967;51.154;13.812;2022-07-06T00:40:05;100006.94;;;18.35;78.57
39267;BME280;24967;51.154;13.812;2022-07-06T00:42:39;100001.94;;;18.31;78.97
39267;BME280;24967;51.154;13.812;2022-07-06T00:45:06;99981.97;;;18.41;78.63
39267;BME280;24967;51.154;13.812;2022-07-06T00:47:34;99971.63;;;18.44;78.38
39267;BME280;24967;51.154;13.812;2022-07-06T00:50:00;99947.09;;;18.33;78.93
39267;BME280;24967;51.154;13.812;2022-07-06T00:52:46;99935.22;;;18.27;79.30
39267;BME280;24967;51.154;13.812;2022-07-06T00:55:14;99929.97;;;18.19;78.11
39267;BME280;24967;51.154;13.812;2022-07-06T00:57:42;99919.47;;;18.24;78.33
39267;BME280;24967;51.154;13.812;2022-07-06T01:00:11;99928.88;;;18.13;78.37
39267;BME280;24967;51.154;13.812;2022-07-06T01:02:40;99924.25;;;18.07;79.07
39267;BME280;24967;51.154;13.812;2022-07-06T01:05:08;99935.53;;;18.17;79.00
39267;BME280;24967;51.154;13.812;2022-07-06T01:07:36;99941.94;;;18.16;78.69
39267;BME280;24967;51.154;13.812;2022-07-06T01:10:04;99934.06;;;18.15;78.53
39267;BME280;24967;51.154;13.812;2022-07-06T01:12:31;99947.13;;;18.18;78.54
39267;BME280;24967;51.154;13.812;2022-07-06T01:15:02;99956.34;;;18.08;78.30
39267;BME280;24967;51.154;13.812;2022-07-06T01:17:29;99950.19;;;18.15;78.59
39267;BME280;24967;51.154;13.812;2022-07-06T01:19:57;99955.75;;;18.28;78.57
39267;BME280;24967;51.154;13.812;2022-07-06T01:22:25;99959.88;;;17.94;80.02
39267;BME280;24967;51.154;13.812;2022-07-06T01:24:52;99954.97;;;18.13;79.49
39267;BME280;24967;51.154;13.812;2022-07-06T01:27:18;99954.88;;;17.91;79.95
39267;BME280;24967;51.154;13.812;2022-07-06T01:29:45;99957.56;;;17.91;80.83
39267;BME280;24967;51.154;13.812;2022-07-06T01:32:11;99956.84;;;17.97;80.67
39267;BME280;24967;51.154;13.812;2022-07-06T01:34:37;99958.53;;;17.83;81.41
39267;BME280;24967;51.154;13.812;2022-07-06T01:37:04;99957.94;;;17.88;81.22
39267;BME280;24967;51.154;13.812;2022-07-06T01:39:32;99963.53;;;17.87;81.43
39267;BME280;24967;51.154;13.812;2022-07-06T01:41:58;99952.47;;;17.96;80.75
39267;BME280;24967;51.154;13.812;2022-07-06T01:44:25;99942.84;;;17.87;80.57
39267;BME280;24967;51.154;13.812;2022-07-06T01:46:51;99939.94;;;18.03;80.07
39267;BME280;24967;51.154;13.812;2022-07-06T01:49:17;99939.38;;;18.08;79.57
39267;BME280;24967;51.154;13.812;2022-07-06T01:51:44;99932.78;;;18.11;79.12
39267;BME280;24967;51.154;13.812;2022-07-06T01:54:11;99941.50;;;18.13;78.98
39267;BME280;24967;51.154;13.812;2022-07-06T01:56:39;99946.75;;;18.21;79.14
39267;BME280;24967;51.154;13.812;2022-07-06T01:59:05;99945.25;;;18.18;78.75
39267;BME280;24967;51.154;13.812;2022-07-06T02:01:32;99946.88;;;18.13;78.36
39267;BME280;24967;51.154;13.812;2022-07-06T02:03:58;99946.59;;;18.07;77.96
39267;BME280;24967;51.154;13.812;2022-07-06T02:06:25;99945.13;;;18.05;78.27
39267;BME280;24967;51.154;13.812;2022-07-06T02:08:51;99950.13;;;18.08;78.52
39267;BME280;24967;51.154;13.812;2022-07-06T02:11:19;99948.06;;;17.89;79.55
39267;BME280;24967;51.154;13.812;2022-07-06T02:13:47;99947.94;;;17.82;79.66
39267;BME280;24967;51.154;13.812;2022-07-06T02:16:14;99956.38;;;17.94;79.76
39267;BME280;24967;51.154;13.812;2022-07-06T02:18:40;99957.25;;;17.79;79.49
39267;BME280;24967;51.154;13.812;2022-07-06T02:21:07;99946.66;;;17.78;79.58
39267;BME280;24967;51.154;13.812;2022-07-06T02:23:33;99942.56;;;17.82;79.49
39267;BME280;24967;51.154;13.812;2022-07-06T02:25:59;99929.94;;;17.97;79.38
39267;BME280;24967;51.154;13.812;2022-07-06T02:28:26;99932.44;;;17.99;79.58
39267;BME280;24967;51.154;13.812;2022-07-06T02:30:54;99936.72;;;17.93;79.24
39267;BME280;24967;51.154;13.812;2022-07-06T02:33:20;99933.09;;;18.01;79.25
39267;BME280;24967;51.154;13.812;2022-07-06T02:35:47;99939.09;;;18.03;79.21
39267;BME280;24967;51.154;13.812;2022-07-06T02:38:13;99935.41;;;18.04;79.32
39267;BME280;24967;51.154;13.812;2022-07-06T02:40:40;99940.19;;;18.08;79.00
39267;BME280;24967;51.154;13.812;2022-07-06T02:43:07;99932.38;;;17.92;78.89
39267;BME280;24967;51.154;13.812;2022-07-06T02:45:33;99938.50;;;17.86;79.06
39267;BME280;24967;51.154;13.812;2022-07-06T02:48:01;99941.63;;;17.90;79.00
39267;BME280;24967;51.154;13.812;2022-07-06T02:50:28;99932.84;;;17.81;79.12
39267;BME280;24967;51.154;13.812;2022-07-06T02:52:54;99941.09;;;17.79;79.19
39267;BME280;24967;51.154;13.812;2022-07-06T02:55:21;99943.97;;;17.78;79.39
39267;BME280;24967;51.154;13.812;2022-07-06T02:57:48;99937.84;;;17.54;80.23
39267;BME280;24967;51.154;13.812;2022-07-06T03:00:15;99934.97;;;17.56;80.42
39267;BME280;24967;51.154;13.812;2022-07-06T03:02:42;99930.06;;;17.59;80.40
39267;BME280;24967;51.154;13.812;2022-07-06T03:05:09;99933.28;;;17.55;80.27
39267;BME280;24967;51.154;13.812;2022-07-06T03:07:36;99936.63;;;17.57;80.25
39267;BME280;24967;51.154;13.812;2022-07-06T03:10:03;99936.09;;;17.61;79.96
39267;BME280;24967;51.154;13.812;2022-07-06T03:12:31;99940.25;;;17.64;79.88
39267;BME280;24967;51.154;13.812;2022-07-06T03:14:58;99941.25;;;17.63;79.82
39267;BME280;24967;51.154;13.812;2022-07-06T03:17:25;99949.97;;;17.65;79.69
39267;BME280;24967;51.154;13.812;2022-07-06T03:19:51;99952.66;;;17.65;79.63
39267;BME280;24967;51.154;13.812;2022-07-06T03:22:19;99943.19;;;17.69;79.54
39267;BME280;24967;51.154;13.812;2022-07-06T03:24:46;99948.56;;;17.69;79.43
39267;BME280;24967;51.154;13.812;2022-07-06T03:27:12;99952.22;;;17.61;79.17
39267;BME280;24967;51.154;13.812;2022-07-06T03:29:39;99952.75;;;17.57;79.20
39267;BME280;24967;51.154;13.812;2022-07-06T03:32:06;99949.63;;;17.53;79.03
39267;BME280;24967;51.154;13.812;2022-07-06T03:34:33;99954.16;;;17.53;79.07
39267;BME280;24967;51.154;13.812;2022-07-06T03:37:00;99951.47;;;17.53;79.07
39267;BME280;24967;51.154;13.812;2022-07-06T03:39:28;99952.84;;;17.49;78.87
39267;BME280;24967;51.154;13.812;2022-07-06T03:41:54;99950.34;;;17.47;78.77
39267;BME280;24967;51.154;13.812;2022-07-06T03:44:21;99957.38;;;17.48;78.51
39267;BME280;24967;51.154;13.812;2022-07-06T03:46:47;99952.38;;;17.45;78.61
39267;BME280;24967;51.154;13.812;2022-07-06T03:49:14;99956.56;;;17.48;78.57
39267;BME280;24967;51.154;13.812;2022-07-06T03:51:41;99952.84;;;17.49;78.85
39267;BME280;24967;51.154;13.812;2022-07-06T03:54:07;99967.50;;;17.46;78.76
39267;BME280;24967;51.154;13.812;2022-07-06T03:56:36;99967.13;;;17.49;78.85
39267;BME280;24967;51.154;13.812;2022-07-06T03:59:04;99962.03;;;17.54;78.69
39267;BME280;24967;51.154;13.812;2022-07-06T04:01:31;99960.94;;;17.78;79.10
39267;BME280;24967;51.154;13.812;2022-07-06T04:03:59;99965.00;;;17.89;79.80
39267;BME280;24967;51.154;13.812;2022-07-06T04:06:25;99967.69;;;18.04;80.02
39267;BME280;24967;51.154;13.812;2022-07-06T04:08:52;99963.69;;;17.85;80.95
39267;BME280;24967;51.154;13.812;2022-07-06T04:11:18;99968.44;;;17.53;82.63
39267;BME280;24967;51.154;13.812;2022-07-06T04:13:46;99971.03;;;17.61;83.19
39267;BME280;24967;51.154;13.812;2022-07-06T04:16:13;99963.22;;;17.67;83.16
39267;BME280;24967;51.154;13.812;2022-07-06T04:18:39;99969.25;;;17.69;83.69
39267;BME280;24967;51.154;13.812;2022-07-06T04:21:06;99965.94;;;17.81;83.02
39267;BME280;24967;51.154;13.812;2022-07-06T04:23:33;99959.94;;;17.79;83.49
39267;BME280;24967;51.154;13.812;2022-07-06T04:26:00;99971.22;;;17.90;83.35
39267;BME280;24967;51.154;13.812;2022-07-06T04:28:26;99966.53;;;18.13;82.50
39267;BME280;24967;51.154;13.812;2022-07-06T04:30:54;99969.91;;;18.00;83.40
39267;BME280;24967;51.154;13.812;2022-07-06T04:33:20;99974.41;;;18.15;81.74
39267;BME280;24967;51.154;13.812;2022-07-06T04:35:47;99977.03;;;18.08;81.50
39267;BME280;24967;51.154;13.812;2022-07-06T04:38:13;99970.16;;;17.76;82.45
39267;BME280;24967;51.154;13.812;2022-07-06T04:40:40;99975.78;;;17.89;82.64
39267;BME280;24967;51.154;13.812;2022-07-06T04:43:07;99980.94;;;17.91;82.67
39267;BME280;24967;51.154;13.812;2022-07-06T04:45:34;99981.25;;;17.81;83.40
39267;BME280;24967;51.154;13.812;2022-07-06T04:48:01;99981.50;;;17.71;84.93
39267;BME280;24967;51.154;13.812;2022-07-06T04:50:28;99985.09;;;17.63;83.85
39267;BME280;24967;51.154;13.812;2022-07-06T04:52:55;99987.34;;;17.75;82.92
39267;BME280;24967;51.154;13.812;2022-07-06T04:55:21;99991.88;;;17.59;83.06
39267;BME280;24967;51.154;13.812;2022-07-06T04:57:48;99985.66;;;17.44;83.85
39267;BME280;24967;51.154;13.812;2022-07-06T05:00:17;99985.94;;;17.49;83.19
39267;BME280;24967;51.154;13.812;2022-07-06T05:02:43;99989.91;;;17.38;84.17
39267;BME280;24967;51.154;13.812;2022-07-06T05:05:11;99989.19;;;17.45;84.10
39267;BME280;24967;51.154;13.812;2022-07-06T05:07:37;99993.91;;;17.57;83.29
39267;BME280;24967;51.154;13.812;2022-07-06T05:10:07;99996.22;;;17.60;82.87
39267;BME280;24967;51.154;13.812;2022-07-06T05:12:33;99999.03;;;17.52;83.02
39267;BME280;24967;51.154;13.812;2022-07-06T05:15:00;99998.53;;;17.63;81.25
39267;BME280;24967;51.154;13.812;2022-07-06T05:17:26;100005.88;;;17.70;81.42
39267;BME280;24967;51.154;13.812;2022-07-06T05:19:53;100006.16;;;17.75;80.86
39267;BME280;24967;51.154;13.812;2022-07-06T05:22:21;100007.72;;;17.69;80.00
39267;BME280;24967;51.154;13.812;2022-07-06T05:24:47;100011.16;;;17.63;80.85
39267;BME280;24967;51.154;13.812;2022-07-06T05:27:14;100007.31;;;17.80;80.89
39267;BME280;24967;51.154;13.812;2022-07-06T05:29:40;100025.28;;;17.95;79.75
39267;BME280;24967;51.154;13.812;2022-07-06T05:32:07;100029.28;;;17.99;79.87
39267;BME280;24967;51.154;13.812;2022-07-06T05:34:34;100025.66;;;18.06;78.45
39267;BME280;24967;51.154;13.812;2022-07-06T05:37:02;100033.59;;;18.29;78.29
39267;BME280;24967;51.154;13.812;2022-07-06T05:39:31;100032.97;;;18.13;78.88
39267;BME280;24967;51.154;13.812;2022-07-06T05:41:58;100035.00;;;18.11;79.46
39267;BME280;24967;51.154;13.812;2022-07-06T05:44:24;100040.00;;;18.28;78.28
39267;BME280;24967;51.154;13.812;2022-07-06T05:46:51;100039.25;;;18.35;77.81
39267;BME280;24967;51.154;13.812;2022-07-06T05:49:37;100036.03;;;18.10;78.40
39267;BME280;24967;51.154;13.812;2022-07-06T05:52:21;100044.44;;;18.21;76.63
39267;BME280;24967;51.154;13.812;2022-07-06T05:54:49;100050.47;;;18.38;75.42
39267;BME280;24967;51.154;13.812;2022-07-06T05:57:16;100045.97;;;18.45;75.90
39267;BME280;24967;51.154;13.812;2022-07-06T05:59:43;100047.63;;;18.61;77.20
39267;BME280;24967;51.154;13.812;2022-07-06T06:02:09;100047.63;;;18.97;75.01
39267;BME280;24967;51.154;13.812;2022-07-06T06:04:36;100046.81;;;19.53;74.50
39267;BME280;24967;51.154;13.812;2022-07-06T06:07:02;100049.69;;;19.73;71.83
39267;BME280;24967;51.154;13.812;2022-07-06T06:09:29;100053.72;;;19.90;70.64
39267;BME280;24967;51.154;13.812;2022-07-06T06:11:57;100045.03;;;20.36;69.82
39267;BME280;24967;51.154;13.812;2022-07-06T06:14:23;100047.41;;;20.66;68.98
39267;BME280;24967;51.154;13.812;2022-07-06T06:16:50;100039.81;;;21.10;67.39
39267;BME280;24967;51.154;13.812;2022-07-06T06:19:16;100044.81;;;21.19;66.04
39267;BME280;24967;51.154;13.812;2022-07-06T06:21:42;100047.47;;;20.79;68.31
39267;BME280;24967;51.154;13.812;2022-07-06T06:24:09;100046.25;;;21.28;64.47
39267;BME280;24967;51.154;13.812;2022-07-06T06:26:35;100053.31;;;21.30;64.28
39267;BME280;24967;51.154;13.812;2022-07-06T06:29:03;100054.22;;;21.37;62.86
39267;BME280;24967;51.154;13.812;2022-07-06T06:31:30;100063.34;;;21.36;65.03
39267;BME280;24967;51.154;13.812;2022-07-06T06:33:57;100059.59;;;21.57;62.99
39267;BME280;24967;51.154;13.812;2022-07-06T06:36:24;100059.41;;;21.58;61.86
39267;BME280;24967;51.154;13.812;2022-07-06T06:38:50;100064.50;;;22.00;63.33
39267;BME280;24967;51.154;13.812;2022-07-06T06:41:16;100059.69;;;22.08;62.72
39267;BME280;24967;51.154;13.812;2022-07-06T06:43:45;100062.59;;;22.20;59.39
39267;BME280;24967;51.154;13.812;2022-07-06T06:46:13;100062.56;;;22.27;61.19
39267;BME280;24967;51.154;13.812;2022-07-06T06:48:40;100057.75;;;22.35;66.03
39267;BME280;24967;51.154;13.812;2022-07-06T06:51:06;100055.44;;;22.39;60.32
39267;BME280;24967;51.154;13.812;2022-07-06T06:53:34;100054.66;;;22.32;57.13
39267;BME280;24967;51.154;13.812;2022-07-06T06:56:01;100070.53;;;22.08;57.24
39267;BME280;24967;51.154;13.812;2022-07-06T06:58:28;100064.78;;;21.85;60.61
39267;BME280;24967;51.154;13.812;2022-07-06T07:00:58;100071.97;;;22.17;56.85
39267;BME280;24967;51.154;13.812;2022-07-06T07:03:28;100066.19;;;22.01;56.41
39267;BME280;24967;51.154;13.812;2022-07-06T07:05:58;100064.50;;;22.06;57.88
39267;BME280;24967;51.154;13.812;2022-07-06T07:08:24;100076.66;;;21.64;58.06
39267;BME280;24967;51.154;13.812;2022-07-06T07:10:51;100077.91;;;21.55;55.32
39267;BME280;24967;51.154;13.812;2022-07-06T07:13:17;100081.00;;;21.85;56.58
39267;BME280;24967;51.154;13.812;2022-07-06T07:15:44;100078.53;;;21.70;56.49
39267;BME280;24967;51.154;13.812;2022-07-06T07:18:10;100080.81;;;21.80;57.34
39267;BME280;24967;51.154;13.812;2022-07-06T07:20:38;100079.72;;;21.87;59.71
39267;BME280;24967;51.154;13.812;2022-07-06T07:23:04;100082.22;;;21.95;55.50
39267;BME280;24967;51.154;13.812;2022-07-06T07:25:31;100082.84;;;21.84;54.02
39267;BME280;24967;51.154;13.812;2022-07-06T07:27:59;100086.00;;;21.75;56.46
39267;BME280;24967;51.154;13.812;2022-07-06T07:30:25;100084.78;;;21.70;55.41
39267;BME280;24967;51.154;13.812;2022-07-06T07:32:52;100092.69;;;21.59;56.07
39267;BME280;24967;51.154;13.812;2022-07-06T07:35:20;100083.13;;;21.43;54.94
39267;BME280;24967;51.154;13.812;2022-07-06T07:37:47;100091.84;;;21.38;55.37
39267;BME280;24967;51.154;13.812;2022-07-06T07:40:14;100088.91;;;21.20;53.72
39267;BME280;24967;51.154;13.812;2022-07-06T07:42:40;100088.88;;;21.00;55.49
39267;BME280;24967;51.154;13.812;2022-07-06T07:45:09;100092.19;;;21.02;54.85
39267;BME280;24967;51.154;13.812;2022-07-06T07:47:35;100092.41;;;20.94;55.41
39267;BME280;24967;51.154;13.812;2022-07-06T07:50:02;100087.19;;;21.05;55.54
39267;BME280;24967;51.154;13.812;2022-07-06T07:52:29;100088.03;;;20.93;56.57
39267;BME280;24967;51.154;13.812;2022-07-06T07:54:57;100092.19;;;20.89;55.13
39267;BME280;24967;51.154;13.812;2022-07-06T07:57:24;100094.66;;;20.84;55.16
39267;BME280;24967;51.154;13.812;2022-07-06T07:59:51;100095.28;;;20.79;55.88
39267;BME280;24967;51.154;13.812;2022-07-06T08:02:17;100093.41;;;20.79;55.90
39267;BME280;24967;51.154;13.812;2022-07-06T08:04:43;100093.38;;;20.25;54.73
39267;BME280;24967;51.154;13.812;2022-07-06T08:07:10;100087.22;;;20.03;52.67
39267;BME280;24967;51.154;13.812;2022-07-06T08:09:36;100094.25;;;19.97;53.45
39267;BME280;24967;51.154;13.812;2022-07-06T08:12:05;100091.97;;;19.94;54.63
39267;BME280;24967;51.154;13.812;2022-07-06T08:14:32;100098.69;;;19.77;55.13
39267;BME280;24967;51.154;13.812;2022-07-06T08:16:59;100096.69;;;19.64;53.33
39267;BME280;24967;51.154;13.812;2022-07-06T08:19:26;100094.59;;;19.87;53.44
39267;BME280;24967;51.154;13.812;2022-07-06T08:21:52;100088.41;;;19.94;52.08
39267;BME280;24967;51.154;13.812;2022-07-06T08:24:18;100091.47;;;19.84;52.69
39267;BME280;24967;51.154;13.812;2022-07-06T08:26:45;100086.38;;;20.44;52.92
39267;BME280;24967;51.154;13.812;2022-07-06T08:29:13;100092.59;;;20.38;50.97
39267;BME280;24967;51.154;13.812;2022-07-06T08:31:39;100092.78;;;20.36;51.06
39267;BME280;24967;51.154;13.812;2022-07-06T08:34:06;100092.22;;;20.47;50.84
39267;BME280;24967;51.154;13.812;2022-07-06T08:36:32;100099.13;;;20.56;51.27
39267;BME280;24967;51.154;13.812;2022-07-06T08:38:59;100100.13;;;20.49;50.01
39267;BME280;24967;51.154;13.812;2022-07-06T08:41:29;100097.56;;;20.34;49.91
39267;BME280;24967;51.154;13.812;2022-07-06T08:43:55;100102.25;;;19.84;50.68
39267;BME280;24967;51.154;13.812;2022-07-06T08:46:23;100100.47;;;19.98;51.28
39267;BME280;24967;51.154;13.812;2022-07-06T08:48:50;100103.50;;;20.16;51.80
39267;BME280;24967;51.154;13.812;2022-07-06T08:51:17;100105.19;;;20.24;51.07
39267;BME280;24967;51.154;13.812;2022-07-06T08:53:44;100094.84;;;20.27;52.49
39267;BME280;24967;51.154;13.812;2022-07-06T08:56:14;100090.59;;;20.53;51.21
39267;BME280;24967;51.154;13.812;2022-07-06T08:58:40;100107.34;;;20.00;50.76
39267;BME280;24967;51.154;13.812;2022-07-06T09:01:08;100102.28;;;19.90;49.97
39267;BME280;24967;51.154;13.812;2022-07-06T09:03:36;100101.78;;;20.08;50.59
39267;BME280;24967;51.154;13.812;2022-07-06T09:06:06;100094.69;;;20.01;49.18
39267;BME280;24967;51.154;13.812;2022-07-06T09:08:33;100101.28;;;20.33;50.82
39267;BME280;24967;51.154;13.812;2022-07-06T09:11:01;100096.50;;;20.28;49.38
39267;BME280;24967;51.154;13.812;2022-07-06T09:13:28;100096.16;;;20.51;48.98
39267;BME280;24967;51.154;13.812;2022-07-06T09:15:55;100093.81;;;20.83;49.77
39267;BME280;24967;51.154;13.812;2022-07-06T09:18:21;100107.63;;;20.53;49.35
39267;BME280;24967;51.154;13.812;2022-07-06T09:20:49;100093.03;;;20.48;49.83
39267;BME280;24967;51.154;13.812;2022-07-06T09:23:16;100106.88;;;20.25;49.72
39267;BME280;24967;51.154;13.812;2022-07-06T09:25:47;100098.03;;;20.51;50.41
39267;BME280;24967;51.154;13.812;2022-07-06T09:28:14;100094.78;;;20.55;51.03
39267;BME280;24967;51.154;13.812;2022-07-06T09:30:41;100094.22;;;20.73;50.31
39267;BME280;24967;51.154;13.812;2022-07-06T09:33:09;100092.31;;;20.61;49.09
39267;BME280;24967;51.154;13.812;2022-07-06T09:35:38;100098.81;;;20.93;48.88
39267;BME280;24967;51.154;13.812;2022-07-06T09:38:08;100096.78;;;21.08;49.24
39267;BME280;24967;51.154;13.812;2022-07-06T09:40:37;100098.28;;;21.50;48.09
39267;BME280;24967;51.154;13.812;2022-07-06T09:43:11;100092.47;;;21.73;49.06
39267;BME280;24967;51.154;13.812;2022-07-06T09:45:39;100089.53;;;21.75;46.51
39267;BME280;24967;51.154;13.812;2022-07-06T09:48:07;100090.00;;;21.52;46.79
39267;BME280;24967;51.154;13.812;2022-07-06T09:50:41;100097.66;;;21.82;49.07
39267;BME280;24967;51.154;13.812;2022-07-06T09:53:10;100094.34;;;21.73;47.11
39267;BME280;24967;51.154;13.812;2022-07-06T09:55:37;100094.09;;;21.81;46.11
39267;BME280;24967;51.154;13.812;2022-07-06T10:00:30;100099.34;;;21.69;46.09
39267;BME280;24967;51.154;13.812;2022-07-06T10:03:00;100100.78;;;21.72;46.36
39267;BME280;24967;51.154;13.812;2022-07-06T10:05:27;100099.13;;;21.64;46.38
39267;BME280;24967;51.154;13.812;2022-07-06T10:07:58;100103.69;;;21.77;45.52
39267;BME280;24967;51.154;13.812;2022-07-06T10:10:28;100099.34;;;21.56;44.61
39267;BME280;24967;51.154;13.812;2022-07-06T10:12:56;100095.41;;;21.45;45.80
39267;BME280;24967;51.154;13.812;2022-07-06T10:15:25;100099.97;;;21.58;46.98
39267;BME280;24967;51.154;13.812;2022-07-06T10:17:51;100093.88;;;22.09;46.70
39267;BME280;24967;51.154;13.812;2022-07-06T10:20:18;100088.63;;;22.28;44.27
39267;BME280;24967;51.154;13.812;2022-07-06T10:22:45;100088.84;;;22.20;44.22
39267;BME280;24967;51.154;13.812;2022-07-06T10:25:14;100079.81;;;22.46;43.11
39267;BME280;24967;51.154;13.812;2022-07-06T10:27:42;100094.44;;;22.31;44.08
39267;BME280;24967;51.154;13.812;2022-07-06T10:30:10;100089.81;;;22.38;44.08
39267;BME280;24967;51.154;13.812;2022-07-06T10:32:38;100093.84;;;22.03;43.41
39267;BME280;24967;51.154;13.812;2022-07-06T10:35:06;100089.31;;;21.90;44.44
39267;BME280;24967;51.154;13.812;2022-07-06T10:37:33;100083.72;;;21.65;44.84
39267;BME280;24967;51.154;13.812;2022-07-06T10:40:00;100084.47;;;22.05;45.15
39267;BME280;24967;51.154;13.812;2022-07-06T10:42:46;100086.41;;;21.91;43.07
39267;BME280;24967;51.154;13.812;2022-07-06T10:45:19;100083.31;;;21.61;43.79
39267;BME280;24967;51.154;13.812;2022-07-06T10:47:47;100077.91;;;21.61;44.54
39267;BME280;24967;51.154;13.812;2022-07-06T10:50:13;100079.75;;;21.81;45.22
39267;BME280;24967;51.154;13.812;2022-07-06T10:52:50;100077.88;;;21.81;44.09
39267;BME280;24967;51.154;13.812;2022-07-06T10:55:28;100079.78;;;21.54;43.98
39267;BME280;24967;51.154;13.812;2022-07-06T10:57:56;100081.25;;;21.50;44.04
39267;BME280;24967;51.154;13.812;2022-07-06T11:00:23;100078.75;;;21.55;45.64
39267;BME280;24967;51.154;13.812;2022-07-06T11:02:49;100077.88;;;21.81;45.57
39267;BME280;24967;51.154;13.812;2022-07-06T11:05:40;100081.97;;;22.10;43.58
39267;BME280;24967;51.154;13.812;2022-07-06T11:08:08;100074.91;;;22.03;42.34
39267;BME280;24967;51.154;13.812;2022-07-06T11:10:46;100062.25;;;21.90;43.03
39267;BME280;24967;51.154;13.812;2022-07-06T11:13:26;100067.63;;;22.16;43.54
39267;BME280;24967;51.154;13.812;2022-07-06T11:16:00;100070.09;;;22.25;43.07
39267;BME280;24967;51.154;13.812;2022-07-06T11:18:27;100061.53;;;22.28;44.16
39267;BME280;24967;51.154;13.812;2022-07-06T11:21:14;100061.59;;;22.01;43.55
39267;BME280;24967;51.154;13.812;2022-07-06T11:23:41;100057.28;;;21.73;43.81
39267;BME280;24967;51.154;13.812;2022-07-06T11:26:08;100062.69;;;21.73;43.20
39267;BME280;24967;51.154;13.812;2022-07-06T11:28:37;100064.19;;;21.69;43.01
39267;BME280;24967;51.154;13.812;2022-07-06T11:31:04;100063.53;;;21.74;43.42
39267;BME280;24967;51.154;13.812;2022-07-06T11:33:32;100065.63;;;21.79;43.82
39267;BME280;24967;51.154;13.812;2022-07-06T11:36:15;100061.16;;;22.04;43.52
39267;BME280;24967;51.154;13.812;2022-07-06T11:38:42;100057.63;;;22.17;42.29
39267;BME280;24967;51.154;13.812;2022-07-06T11:41:10;100053.97;;;22.43;43.37
39267;BME280;24967;51.154;13.812;2022-07-06T11:43:40;100058.72;;;22.54;43.00
39267;BME280;24967;51.154;13.812;2022-07-06T11:46:26;100063.78;;;22.37;41.47
39267;BME280;24967;51.154;13.812;2022-07-06T11:48:56;100059.16;;;22.45;41.75
39267;BME280;24967;51.154;13.812;2022-07-06T11:51:24;100055.38;;;22.52;42.31
39267;BME280;24967;51.154;13.812;2022-07-06T11:53:52;100051.56;;;22.67;42.39
39267;BME280;24967;51.154;13.812;2022-07-06T11:56:19;100050.16;;;22.96;41.27
39267;BME280;24967;51.154;13.812;2022-07-06T11:58:49;100049.06;;;23.03;40.93
39267;BME280;24967;51.154;13.812;2022-07-06T12:01:16;100050.19;;;23.21;40.35
39267;BME280;24967;51.154;13.812;2022-07-06T12:03:43;100055.38;;;22.91;40.11
39267;BME280;24967;51.154;13.812;2022-07-06T12:06:15;100044.66;;;22.71;40.68
39267;BME280;24967;51.154;13.812;2022-07-06T12:08:43;100057.19;;;22.13;41.65
39267;BME280;24967;51.154;13.812;2022-07-06T12:11:10;100042.72;;;22.46;41.78
39267;BME280;24967;51.154;13.812;2022-07-06T12:13:38;100042.13;;;22.37;41.00
39267;BME280;24967;51.154;13.812;2022-07-06T12:16:11;100045.34;;;22.21;41.24
39267;BME280;24967;51.154;13.812;2022-07-06T12:18:38;100045.94;;;22.23;40.95
39267;BME280;24967;51.154;13.812;2022-07-06T12:21:07;100047.38;;;22.26;41.37
39267;BME280;24967;51.154;13.812;2022-07-06T12:23:41;100046.16;;;22.08;40.92
39267;BME280;24967;51.154;13.812;2022-07-06T12:26:07;100040.34;;;22.18;40.67
39267;BME280;24967;51.154;13.812;2022-07-06T12:28:34;100032.34;;;22.30;41.73
39267;BME280;24967;51.154;13.812;2022-07-06T12:31:01;100034.41;;;22.79;41.90
39267;BME280;24967;51.154;13.812;2022-07-06T12:33:29;100035.84;;;22.75;39.22
39267;BME280;24967;51.154;13.812;2022-07-06T12:35:56;100032.00;;;22.96;40.45
39267;BME280;24967;51.154;13.812;2022-07-06T12:38:23;100019.63;;;23.32;38.23
39267;BME280;24967;51.154;13.812;2022-07-06T12:40:50;100028.13;;;23.36;38.33
39267;BME280;24967;51.154;13.812;2022-07-06T12:43:34;100033.81;;;23.34;38.75
39267;BME280;24967;51.154;13.812;2022-07-06T12:46:28;100027.25;;;23.17;38.31
39267;BME280;24967;51.154;13.812;2022-07-06T12:48:58;100036.38;;;23.47;38.73